Time;durP1;ratioP1;P1;durP2;ratioP2;P2;SDS_P1;SDS_P2;PMS_P1;PMS_P2;Temp;Humidity;BMP_temperature;BMP_pressure;BME280_temperature;BME280_humidity;BME280_pressure;Samples;Min_cycle;Max_cycle;Signal;HPM_P1;HPM_P2
2022/10/05 00:02:17;;;;;;;0.80;0.80;;;12.20;99.90;;;;;;5013073;28;20213;-70
2022/10/05 00:04:43;;;;;;;0.60;0.60;;;12.20;99.90;;;;;;5012798;28;20194;-70
2022/10/05 00:07:17;;;;;;;0.98;0.88;;;12.20;99.90;;;;;;5012979;28;20199;-70
2022/10/05 00:09:53;;;;;;;0.60;0.60;;;12.20;99.90;;;;;;5032068;28;20700;-70
2022/10/05 00:12:21;;;;;;;0.70;0.70;;;12.20;99.90;;;;;;5032482;28;20194;-70
2022/10/05 00:14:50;;;;;;;0.60;0.60;;;12.20;99.90;;;;;;5032673;28;20623;-69
2022/10/05 00:17:21;;;;;;;0.52;0.52;;;12.20;99.90;;;;;;5032646;28;20630;-70
2022/10/05 00:19:52;;;;;;;0.50;0.50;;;12.20;99.90;;;;;;5032865;28;20186;-70
2022/10/05 00:22:23;;;;;;;6.32;2.08;;;12.20;99.90;;;;;;5032541;28;20252;-70
2022/10/05 00:24:54;;;;;;;0.60;0.60;;;12.20;99.90;;;;;;5031199;28;20197;-70
2022/10/05 00:27:24;;;;;;;0.52;0.52;;;12.20;99.90;;;;;;5031024;28;20256;-70
2022/10/05 00:29:52;;;;;;;0.80;0.80;;;12.20;99.90;;;;;;5047652;28;20230;-70
2022/10/05 00:32:18;;;;;;;0.95;0.95;;;12.20;99.90;;;;;;5032362;28;20222;-70
2022/10/05 00:34:45;;;;;;;11.18;2.50;;;12.20;99.90;;;;;;5032291;28;20260;-70
2022/10/05 00:37:13;;;;;;;20.75;1.30;;;12.20;99.90;;;;;;5032217;28;20657;-69
2022/10/05 00:39:40;;;;;;;3.53;0.82;;;12.20;99.90;;;;;;5030962;28;20466;-69
2022/10/05 00:42:23;;;;;;;1.08;0.98;;;12.20;99.90;;;;;;5032316;28;20194;-69
2022/10/05 00:45:05;;;;;;;0.60;0.60;;;12.20;99.90;;;;;;5031844;28;20203;-70
2022/10/05 00:47:48;;;;;;;0.80;0.80;;;12.20;99.90;;;;;;5012414;28;20281;-70
2022/10/05 00:50:17;;;;;;;1.25;1.10;;;12.20;99.90;;;;;;5013558;28;20688;-69
2022/10/05 00:53:20;;;;;;;0.57;0.57;;;12.20;99.90;;;;;;5016043;28;20191;-70
2022/10/05 00:56:03;;;;;;;0.60;0.60;;;12.20;99.90;;;;;;5016295;28;20197;-70
2022/10/05 00:58:48;;;;;;;0.80;0.80;;;12.20;99.90;;;;;;5015957;28;20203;-70
2022/10/05 01:01:31;;;;;;;0.50;0.50;;;12.20;99.90;;;;;;5016272;28;20402;-67
2022/10/05 01:07:44;;;;;;;0.50;0.50;;;12.20;99.90;;;;;;5065430;23;20241;-82
2022/10/05 01:14:04;;;;;;;0.60;0.60;;;12.20;99.90;;;;;;5052978;28;20276;-82
2022/10/05 01:19:45;;;;;;;0.57;0.57;;;12.20;99.90;;;;;;4933014;28;20238;-68
2022/10/05 01:25:15;;;;;;;0.70;0.70;;;12.10;99.90;;;;;;5029366;28;20303;-81
2022/10/05 01:28:14;;;;;;;0.50;0.50;;;12.10;99.90;;;;;;5015631;28;20202;-81
2022/10/05 01:31:07;;;;;;;0.50;0.50;;;12.10;99.90;;;;;;5017771;28;20947;-81
2022/10/05 01:33:49;;;;;;;0.85;0.85;;;12.10;99.90;;;;;;5018017;28;20688;-81
2022/10/05 01:36:28;;;;;;;0.93;0.93;;;12.10;99.90;;;;;;5035397;28;20652;-81
2022/10/05 01:39:03;;;;;;;0.60;0.60;;;12.10;99.90;;;;;;5017558;28;20221;-81
2022/10/05 01:41:49;;;;;;;0.50;0.50;;;12.10;99.90;;;;;;5033986;28;20569;-81
2022/10/05 01:44:20;;;;;;;0.60;0.60;;;12.10;99.90;;;;;;5035539;28;20691;-81
2022/10/05 01:47:19;;;;;;;0.57;0.57;;;12.10;99.90;;;;;;5001690;28;20393;-81
2022/10/05 01:49:51;;;;;;;0.40;0.40;;;12.10;99.90;;;;;;5015409;28;20252;-81
2022/10/05 01:52:35;;;;;;;0.50;0.50;;;12.10;99.90;;;;;;5014569;28;20198;-81
2022/10/05 01:55:19;;;;;;;1.00;1.00;;;12.20;99.90;;;;;;5014027;28;20245;-81
2022/10/05 01:58:22;;;;;;;0.77;0.70;;;12.10;99.90;;;;;;5015340;28;20206;-82
2022/10/05 02:00:54;;;;;;;0.52;0.52;;;12.10;99.90;;;;;;5022659;28;20190;-81
2022/10/05 02:03:48;;;;;;;0.60;0.60;;;12.10;99.90;;;;;;5016099;28;20194;-81
2022/10/05 02:06:22;;;;;;;0.90;0.90;;;12.10;99.90;;;;;;5035021;28;20735;-81
2022/10/05 02:09:03;;;;;;;0.63;0.63;;;12.20;99.90;;;;;;5035029;28;20186;-81
2022/10/05 02:11:29;;;;;;;0.60;0.60;;;12.20;99.90;;;;;;5016955;28;20260;-81
2022/10/05 02:14:14;;;;;;;0.60;0.60;;;12.20;99.90;;;;;;5017239;28;20677;-81
2022/10/05 02:16:42;;;;;;;0.68;0.68;;;12.20;99.90;;;;;;5034696;28;20572;-82
2022/10/05 02:19:20;;;;;;;0.60;0.60;;;12.20;99.90;;;;;;5016743;28;20678;-82
2022/10/05 02:21:57;;;;;;;0.77;0.77;;;12.20;99.90;;;;;;5017365;28;20190;-82
2022/10/05 02:24:30;;;;;;;0.52;0.52;;;12.20;99.90;;;;;;5016546;28;20248;-81
2022/10/05 02:26:59;;;;;;;2.03;0.88;;;12.20;99.90;;;;;;5016889;28;20202;-82
2022/10/05 02:29:29;;;;;;;0.50;0.50;;;12.20;99.90;;;;;;5016705;28;20208;-82
2022/10/05 02:32:14;;;;;;;0.50;0.50;;;12.20;99.90;;;;;;5016881;28;20204;-81
2022/10/05 02:34:41;;;;;;;0.80;0.80;;;12.20;99.90;;;;;;5016463;28;20676;-82
2022/10/05 02:37:32;;;;;;;0.63;0.63;;;12.20;99.90;;;;;;5016926;28;20236;-82
2022/10/05 02:40:13;;;;;;;2.75;1.02;;;12.20;99.90;;;;;;5016271;28;20237;-82
2022/10/05 02:42:39;;;;;;;0.40;0.40;;;12.20;99.90;;;;;;5052224;28;20201;-82
2022/10/05 02:45:27;;;;;;;2.33;1.00;;;12.20;99.90;;;;;;5034045;28;20205;-83
2022/10/05 02:48:17;;;;;;;0.60;0.60;;;12.30;99.90;;;;;;5016388;28;20669;-83
2022/10/05 02:50:42;;;;;;;0.50;0.50;;;12.20;99.90;;;;;;5034088;28;20555;-83
2022/10/05 02:53:29;;;;;;;0.50;0.50;;;12.20;99.90;;;;;;5033166;28;20190;-84
2022/10/05 02:56:30;;;;;;;0.40;0.40;;;12.30;99.90;;;;;;5032962;28;20296;-83
2022/10/05 02:59:13;;;;;;;0.65;0.65;;;12.30;99.90;;;;;;5032090;28;20594;-82
2022/10/05 03:01:50;;;;;;;0.50;0.50;;;12.30;99.90;;;;;;5014899;28;20230;-82
2022/10/05 03:04:40;;;;;;;0.50;0.50;;;12.30;99.90;;;;;;5015439;28;20648;-82
2022/10/05 03:07:16;;;;;;;0.88;0.88;;;12.30;99.90;;;;;;5034009;28;20272;-82
2022/10/05 03:09:51;;;;;;;0.50;0.50;;;12.40;99.90;;;;;;5015967;28;20198;-83
2022/10/05 03:12:48;;;;;;;0.60;0.60;;;12.40;99.90;;;;;;5032592;28;20205;-82
2022/10/05 03:15:35;;;;;;;0.60;0.60;;;12.40;99.90;;;;;;5033898;28;20182;-83
2022/10/05 03:18:43;;;;;;;0.50;0.50;;;12.30;99.90;;;;;;5033507;28;20295;-83
2022/10/05 03:21:33;;;;;;;0.40;0.40;;;12.30;99.90;;;;;;5015902;28;20201;-81
2022/10/05 03:24:20;;;;;;;1.55;0.80;;;12.40;99.90;;;;;;5033531;28;20222;-82
2022/10/05 03:26:52;;;;;;;1.05;0.98;;;12.40;99.90;;;;;;5034115;28;20194;-81
2022/10/05 03:29:23;;;;;;;0.60;0.60;;;12.40;99.90;;;;;;5033760;28;20613;-81
2022/10/05 03:32:05;;;;;;;0.90;0.90;;;12.40;99.90;;;;;;5032257;28;20224;-82
2022/10/05 03:34:43;;;;;;;0.60;0.60;;;12.40;99.90;;;;;;5033316;28;20256;-83
2022/10/05 03:37:44;;;;;;;0.75;0.75;;;12.40;99.90;;;;;;5019238;28;20197;-83
2022/10/05 03:40:33;;;;;;;0.50;0.50;;;12.40;99.90;;;;;;5030075;28;20687;-82
2022/10/05 03:43:25;;;;;;;0.50;0.50;;;12.40;99.90;;;;;;5053476;28;20200;-82
2022/10/05 03:46:07;;;;;;;0.60;0.60;;;12.50;99.90;;;;;;5023554;28;20705;-82
2022/10/05 03:48:47;;;;;;;0.88;0.88;;;12.50;99.90;;;;;;4995612;28;20199;-89
2022/10/05 03:51:35;;;;;;;0.50;0.50;;;12.50;99.90;;;;;;5013601;28;20556;-83
2022/10/05 03:54:28;;;;;;;0.50;0.50;;;12.50;99.90;;;;;;5018903;28;20215;-82
2022/10/05 03:57:07;;;;;;;0.50;0.50;;;12.50;99.90;;;;;;5032891;28;20213;-82
2022/10/05 04:00:02;;;;;;;0.60;0.60;;;12.50;99.90;;;;;;5033131;28;20224;-83
2022/10/05 04:02:33;;;;;;;0.50;0.50;;;12.50;99.90;;;;;;5012035;28;20198;-82
2022/10/05 04:05:19;;;;;;;0.50;0.50;;;12.50;99.90;;;;;;5011931;28;20542;-83
2022/10/05 04:07:49;;;;;;;0.50;0.50;;;12.60;99.90;;;;;;5013540;28;20190;-83
2022/10/05 04:10:40;;;;;;;0.50;0.50;;;12.50;99.90;;;;;;5011942;28;20195;-83
2022/10/05 04:13:27;;;;;;;0.52;0.52;;;12.60;99.90;;;;;;5013463;28;20198;-87
2022/10/05 04:15:59;;;;;;;0.68;0.68;;;12.60;99.90;;;;;;5013069;28;20607;-80
2022/10/05 04:18:51;;;;;;;0.40;0.40;;;12.60;99.90;;;;;;5013052;28;20700;-80
2022/10/05 04:22:12;;;;;;;0.43;0.43;;;12.50;99.90;;;;;;4985303;28;20202;-82
2022/10/05 04:24:40;;;;;;;0.93;0.80;;;12.50;99.90;;;;;;5011045;28;20314;-82
2022/10/05 04:27:30;;;;;;;0.50;0.50;;;12.60;99.90;;;;;;5017132;28;20202;-83
2022/10/05 04:30:13;;;;;;;0.50;0.50;;;12.60;99.90;;;;;;4999077;28;20313;-82
2022/10/05 04:32:54;;;;;;;0.60;0.60;;;12.60;99.90;;;;;;4999298;28;20205;-83
2022/10/05 04:35:47;;;;;;;0.50;0.50;;;12.60;99.90;;;;;;5055733;28;20194;-82
2022/10/05 04:38:48;;;;;;;0.50;0.50;;;12.70;99.90;;;;;;5038438;28;20213;-81
2022/10/05 04:42:00;;;;;;;5.38;1.25;;;12.60;99.90;;;;;;5056212;28;20238;-82
2022/10/05 04:44:42;;;;;;;0.40;0.40;;;12.60;99.90;;;;;;5048779;28;20220;-82
2022/10/05 04:47:27;;;;;;;1.55;0.88;;;12.60;99.90;;;;;;5016033;28;20202;-83
2022/10/05 04:50:09;;;;;;;0.60;0.60;;;12.70;99.90;;;;;;5025809;28;20209;-82
2022/10/05 04:53:01;;;;;;;0.80;0.80;;;12.70;99.90;;;;;;5018823;28;20626;-85
2022/10/05 04:55:50;;;;;;;0.80;0.80;;;12.60;99.90;;;;;;5036413;28;20723;-84
2022/10/05 04:58:40;;;;;;;0.52;0.52;;;12.60;99.90;;;;;;5018185;28;20220;-82
2022/10/05 05:01:25;;;;;;;0.50;0.50;;;12.60;99.90;;;;;;5034917;28;20194;-83
2022/10/05 05:04:30;;;;;;;0.50;0.50;;;12.70;99.90;;;;;;5034952;28;20202;-82
2022/10/05 05:07:19;;;;;;;1.08;1.02;;;12.70;99.90;;;;;;5003683;28;20241;-82
2022/10/05 05:10:19;;;;;;;0.68;0.65;;;12.70;99.90;;;;;;5034793;28;20204;-83
2022/10/05 05:13:13;;;;;;;0.50;0.50;;;12.70;99.90;;;;;;5034312;28;20269;-83
2022/10/05 05:15:51;;;;;;;0.73;0.73;;;12.70;99.90;;;;;;5034365;28;20205;-81
2022/10/05 05:18:51;;;;;;;0.55;0.55;;;12.70;99.90;;;;;;5018088;28;20213;-83
2022/10/05 05:21:49;;;;;;;1.30;0.95;;;12.70;99.90;;;;;;5035983;28;20195;-84
2022/10/05 05:24:24;;;;;;;0.40;0.40;;;12.70;99.90;;;;;;5034247;28;20234;-79
2022/10/05 05:27:17;;;;;;;0.55;0.55;;;12.70;99.90;;;;;;5034406;28;20202;-81
2022/10/05 05:30:02;;;;;;;0.75;0.75;;;12.70;99.90;;;;;;5039748;28;20656;-80
2022/10/05 05:32:39;;;;;;;0.50;0.50;;;12.70;99.90;;;;;;5034275;28;22285;-83
2022/10/05 05:35:19;;;;;;;0.40;0.40;;;12.70;99.90;;;;;;5017942;28;20194;-84
2022/10/05 05:38:10;;;;;;;0.47;0.43;;;12.70;99.90;;;;;;5033933;28;20214;-84
2022/10/05 05:40:49;;;;;;;0.40;0.40;;;12.70;99.90;;;;;;5035546;28;20236;-84
2022/10/05 05:43:24;;;;;;;0.70;0.70;;;12.70;99.90;;;;;;5035333;28;20200;-84
2022/10/05 05:46:00;;;;;;;0.50;0.50;;;12.70;99.90;;;;;;5017773;28;20198;-84
2022/10/05 05:48:40;;;;;;;0.63;0.63;;;12.70;99.90;;;;;;5035375;28;20285;-84
2022/10/05 05:51:27;;;;;;;0.90;0.70;;;12.70;99.90;;;;;;5017643;28;20210;-84
2022/10/05 05:54:13;;;;;;;0.60;0.60;;;12.70;99.90;;;;;;5003968;28;20297;-84
2022/10/05 05:56:44;;;;;;;0.40;0.40;;;12.80;99.90;;;;;;5014199;28;20238;-85
2022/10/05 05:59:27;;;;;;;0.45;0.45;;;12.80;99.90;;;;;;5014343;28;20199;-84
2022/10/05 06:02:04;;;;;;;0.60;0.60;;;12.80;99.90;;;;;;5014116;28;20197;-85
2022/10/05 06:04:45;;;;;;;0.88;0.73;;;12.80;99.90;;;;;;5014574;28;20650;-84
2022/10/05 06:07:16;;;;;;;0.40;0.40;;;12.80;99.90;;;;;;5014203;28;20199;-85
2022/10/05 06:09:49;;;;;;;0.40;0.40;;;12.80;99.90;;;;;;5015350;28;20601;-84
2022/10/05 06:12:26;;;;;;;0.60;0.60;;;12.80;99.90;;;;;;5015282;28;20191;-85
2022/10/05 06:15:05;;;;;;;0.47;0.47;;;12.80;99.90;;;;;;5015291;28;20226;-84
2022/10/05 06:17:53;;;;;;;0.40;0.40;;;12.90;99.90;;;;;;5013895;28;20210;-85
2022/10/05 06:20:26;;;;;;;0.47;0.47;;;12.90;99.90;;;;;;5011577;28;20207;-84
2022/10/05 06:22:58;;;;;;;0.50;0.50;;;12.90;99.90;;;;;;5014669;28;20198;-84
2022/10/05 06:25:42;;;;;;;14.60;1.50;;;12.90;99.90;;;;;;5013483;28;20206;-84
2022/10/05 06:28:11;;;;;;;0.40;0.40;;;12.90;99.90;;;;;;5034166;28;20728;-85
2022/10/05 06:30:58;;;;;;;1.40;1.05;;;12.90;99.90;;;;;;5016763;28;20194;-84
2022/10/05 06:33:51;;;;;;;3.20;1.35;;;13.00;99.90;;;;;;5016905;28;20710;-85
2022/10/05 06:36:28;;;;;;;0.40;0.40;;;13.00;99.90;;;;;;5016820;28;20574;-84
2022/10/05 06:39:31;;;;;;;0.50;0.50;;;13.00;99.90;;;;;;5032033;28;20206;-85
2022/10/05 06:42:31;;;;;;;0.50;0.50;;;13.00;99.90;;;;;;5027226;28;20201;-85
2022/10/05 06:45:20;;;;;;;0.50;0.50;;;13.00;99.90;;;;;;5002069;28;20217;-85
2022/10/05 06:47:53;;;;;;;0.40;0.40;;;13.10;99.90;;;;;;5032460;28;20296;-84
2022/10/05 06:50:31;;;;;;;2.25;1.00;;;13.00;99.90;;;;;;5034056;28;20216;-85
2022/10/05 06:53:31;;;;;;;0.85;0.85;;;13.00;99.90;;;;;;5034350;28;20194;-85
2022/10/05 06:56:23;;;;;;;0.70;0.70;;;13.10;99.90;;;;;;5018125;28;20238;-84
2022/10/05 06:58:51;;;;;;;0.40;0.40;;;13.10;99.90;;;;;;5034298;28;20690;-84
2022/10/05 07:01:50;;;;;;;0.68;0.68;;;13.20;99.90;;;;;;5032747;28;20198;-84
2022/10/05 07:04:44;;;;;;;0.50;0.50;;;13.20;99.90;;;;;;5032804;28;20388;-85
2022/10/05 07:07:10;;;;;;;0.40;0.40;;;13.20;99.90;;;;;;5032884;28;20240;-85
2022/10/05 07:09:57;;;;;;;0.43;0.43;;;13.30;99.90;;;;;;5032676;28;20202;-86
2022/10/05 07:12:30;;;;;;;2.15;1.05;;;13.30;99.90;;;;;;5032581;28;20206;-85
2022/10/05 07:15:18;;;;;;;0.45;0.45;;;13.30;99.90;;;;;;5034026;28;20216;-86
2022/10/05 07:18:15;;;;;;;0.40;0.40;;;13.30;99.90;;;;;;5032760;28;20217;-85
2022/10/05 07:21:05;;;;;;;0.57;0.57;;;13.30;99.90;;;;;;5032174;28;20206;-84
2022/10/05 07:23:55;;;;;;;0.50;0.50;;;13.40;99.90;;;;;;5046988;28;20568;-84
2022/10/05 07:26:36;;;;;;;0.70;0.70;;;13.50;99.90;;;;;;5053387;28;20193;-83
2022/10/05 07:29:20;;;;;;;0.40;0.40;;;13.50;99.90;;;;;;5053489;28;20193;-85
2022/10/05 07:31:48;;;;;;;0.28;0.28;;;13.50;99.90;;;;;;5035298;28;20185;-85
2022/10/05 07:34:23;;;;;;;0.50;0.50;;;13.50;99.90;;;;;;5035707;28;20197;-85
2022/10/05 07:40:05;;;;;;;0.40;0.40;;;13.60;99.90;;;;;;5033508;28;20268;-85
2022/10/05 07:42:58;;;;;;;0.75;0.75;;;13.60;99.90;;;;;;5015421;28;20600;-84
2022/10/05 07:45:36;;;;;;;1.75;0.75;;;13.60;99.90;;;;;;5010409;28;20289;-84
2022/10/05 07:48:31;;;;;;;0.77;0.70;;;13.60;99.90;;;;;;5012295;28;20203;-84
2022/10/05 07:51:35;;;;;;;0.50;0.50;;;13.60;99.90;;;;;;5013347;28;20241;-84
2022/10/05 07:54:16;;;;;;;0.57;0.57;;;13.70;99.90;;;;;;4995802;28;20213;-84
2022/10/05 07:56:44;;;;;;;0.63;0.63;;;13.70;99.90;;;;;;4995241;28;20532;-84
2022/10/05 07:59:25;;;;;;;0.40;0.40;;;13.70;99.90;;;;;;4995524;28;20217;-84
2022/10/05 08:02:00;;;;;;;0.50;0.50;;;13.80;99.90;;;;;;5013082;28;20696;-85
2022/10/05 08:04:58;;;;;;;0.43;0.43;;;13.80;99.90;;;;;;4995430;28;20194;-84
2022/10/05 08:07:25;;;;;;;0.40;0.40;;;13.80;99.90;;;;;;4995316;28;20207;-83
2022/10/05 08:10:01;;;;;;;0.50;0.50;;;13.90;99.90;;;;;;4995485;28;20577;-83
2022/10/05 08:12:33;;;;;;;1.20;0.98;;;13.90;99.90;;;;;;4995196;28;20201;-85
2022/10/05 08:15:04;;;;;;;0.50;0.50;;;13.90;99.90;;;;;;4995504;28;20198;-84
2022/10/05 08:17:39;;;;;;;0.63;0.63;;;13.90;99.90;;;;;;4995245;28;20207;-84
2022/10/05 08:20:28;;;;;;;0.40;0.40;;;13.90;99.90;;;;;;5047654;28;20196;-84
2022/10/05 08:23:04;;;;;;;0.85;0.85;;;14.00;99.90;;;;;;5034651;28;20310;-83
2022/10/05 08:25:48;;;;;;;0.60;0.60;;;14.00;99.90;;;;;;5052496;28;20197;-85
2022/10/05 08:28:21;;;;;;;0.68;0.68;;;14.00;99.90;;;;;;5035086;28;20297;-85
2022/10/05 08:31:25;;;;;;;0.40;0.40;;;14.10;99.90;;;;;;5034862;28;20233;-85
2022/10/05 08:34:06;;;;;;;1.20;0.70;;;14.10;99.90;;;;;;5009841;28;20228;-85
2022/10/05 08:36:38;;;;;;;0.50;0.50;;;14.10;99.90;;;;;;5032820;28;20539;-85
2022/10/05 08:39:15;;;;;;;0.35;0.35;;;14.10;99.90;;;;;;5015205;28;20190;-86
2022/10/05 08:41:59;;;;;;;0.40;0.40;;;14.10;99.90;;;;;;5009919;28;20256;-84
2022/10/05 08:44:28;;;;;;;0.40;0.40;;;14.20;99.90;;;;;;5013101;28;20197;-85
2022/10/05 08:47:11;;;;;;;0.43;0.43;;;14.20;99.90;;;;;;5013018;28;20210;-85
2022/10/05 08:50:12;;;;;;;0.40;0.40;;;14.20;99.90;;;;;;5011667;28;20566;-84
2022/10/05 08:52:57;;;;;;;0.40;0.40;;;14.10;99.90;;;;;;5012906;28;20202;-85
2022/10/05 08:55:51;;;;;;;1.30;0.63;;;14.10;99.90;;;;;;5011729;28;20206;-84
2022/10/05 08:58:47;;;;;;;1.08;0.63;;;14.10;99.90;;;;;;5012412;28;20309;-84
2022/10/05 09:01:33;;;;;;;0.50;0.50;;;14.10;99.90;;;;;;5012440;28;20195;-84
2022/10/05 09:04:28;;;;;;;0.68;0.68;;;14.10;99.90;;;;;;5012682;28;20186;-85
2022/10/05 09:07:28;;;;;;;0.40;0.40;;;14.20;99.90;;;;;;5011321;28;20284;-85
2022/10/05 09:10:29;;;;;;;0.40;0.40;;;14.20;99.90;;;;;;5011235;28;20199;-85
2022/10/05 09:13:17;;;;;;;0.40;0.40;;;14.30;99.90;;;;;;5014629;28;20242;-87
2022/10/05 09:16:15;;;;;;;0.40;0.40;;;14.30;99.90;;;;;;5039418;28;20198;-84
2022/10/05 09:19:21;;;;;;;0.40;0.40;;;14.40;99.90;;;;;;5037468;28;20213;-86
2022/10/05 09:22:24;;;;;;;0.50;0.50;;;14.50;99.90;;;;;;5037935;28;20640;-86
2022/10/05 09:24:56;;;;;;;0.60;0.60;;;14.50;99.90;;;;;;5037446;28;20225;-84
2022/10/05 09:27:28;;;;;;;0.40;0.40;;;14.50;99.90;;;;;;5037435;28;20691;-86
2022/10/05 09:30:22;;;;;;;0.40;0.40;;;14.60;99.90;;;;;;5037219;28;20609;-85
2022/10/05 09:33:00;;;;;;;0.40;0.40;;;14.60;99.90;;;;;;5018237;28;20202;-86
2022/10/05 09:35:25;;;;;;;0.32;0.32;;;14.60;99.90;;;;;;5018080;28;20248;-86
2022/10/05 09:38:27;;;;;;;0.40;0.40;;;14.60;99.90;;;;;;5012572;28;20206;-87
2022/10/05 09:41:21;;;;;;;0.38;0.38;;;14.70;99.90;;;;;;5014896;28;20218;-87
2022/10/05 09:43:50;;;;;;;0.35;0.35;;;14.60;99.90;;;;;;5016110;28;20741;-86
2022/10/05 09:46:34;;;;;;;0.40;0.40;;;14.60;99.90;;;;;;5026279;28;20202;-87
2022/10/05 09:49:23;;;;;;;0.40;0.40;;;14.70;99.90;;;;;;5034187;28;20194;-89
2022/10/05 09:52:01;;;;;;;0.30;0.30;;;14.70;99.90;;;;;;5034213;28;20205;-86
2022/10/05 09:54:45;;;;;;;0.50;0.50;;;14.60;99.90;;;;;;5034000;28;20193;-87
2022/10/05 09:57:38;;;;;;;0.40;0.40;;;14.60;99.90;;;;;;5035257;28;20198;-87
2022/10/05 10:00:42;;;;;;;0.30;0.30;;;14.50;99.90;;;;;;5002608;28;20209;-85
2022/10/05 10:03:26;;;;;;;0.40;0.40;;;14.50;99.90;;;;;;4977581;28;20223;-86
2022/10/05 10:06:00;;;;;;;0.40;0.40;;;14.50;99.90;;;;;;4977253;28;20210;-86
2022/10/05 10:08:41;;;;;;;0.40;0.40;;;14.50;99.90;;;;;;5002945;28;20209;-86
2022/10/05 10:11:43;;;;;;;0.40;0.40;;;14.50;99.90;;;;;;5040579;28;20250;-86
2022/10/05 10:14:22;;;;;;;0.40;0.40;;;14.40;99.90;;;;;;5054531;28;20213;-85
2022/10/05 10:17:05;;;;;;;0.30;0.30;;;14.50;99.90;;;;;;5054665;28;20185;-85
2022/10/05 10:20:05;;;;;;;0.40;0.40;;;14.40;99.90;;;;;;5054385;28;20731;-85
2022/10/05 10:22:52;;;;;;;0.50;0.50;;;14.40;99.90;;;;;;5035228;28;20192;-84
2022/10/05 10:25:43;;;;;;;0.40;0.40;;;14.50;99.90;;;;;;5036341;28;20228;-85
2022/10/05 10:28:27;;;;;;;0.40;0.40;;;14.50;99.90;;;;;;5037997;28;20202;-85
2022/10/05 10:31:15;;;;;;;0.40;0.40;;;14.60;99.90;;;;;;5016980;28;20287;-85
2022/10/05 10:34:07;;;;;;;0.40;0.40;;;14.60;99.90;;;;;;5016712;28;20205;-85
2022/10/05 10:37:02;;;;;;;0.40;0.40;;;14.60;99.90;;;;;;5034342;28;20240;-84
2022/10/05 10:40:14;;;;;;;0.40;0.40;;;14.70;99.90;;;;;;5015742;28;20238;-85
2022/10/05 10:43:12;;;;;;;3.70;0.63;;;14.60;99.90;;;;;;5013314;28;20198;-85
2022/10/05 10:46:01;;;;;;;0.40;0.40;;;14.50;99.90;;;;;;5021579;28;20202;-85
2022/10/05 10:48:39;;;;;;;0.40;0.40;;;14.50;99.90;;;;;;5034325;28;20205;-86
2022/10/05 10:51:39;;;;;;;0.50;0.50;;;14.50;99.90;;;;;;5033352;28;20198;-85
2022/10/05 10:54:54;;;;;;;0.40;0.40;;;14.50;99.90;;;;;;5016424;28;20198;-85
2022/10/05 10:57:54;;;;;;;0.40;0.40;;;14.50;99.90;;;;;;5005129;28;20322;-85
2022/10/05 11:01:01;;;;;;;0.40;0.40;;;14.40;99.90;;;;;;5041612;23;20332;-71
2022/10/05 11:07:44;;;;;;;0.40;0.40;;;14.30;99.90;;;;;;5008481;28;20253;-71
2022/10/05 11:10:32;;;;;;;0.40;0.40;;;14.30;99.90;;;;;;4979296;28;20608;-72
2022/10/05 11:13:41;;;;;;;0.30;0.30;;;14.30;99.90;;;;;;5016171;28;20569;-72
2022/10/05 11:16:52;;;;;;;0.40;0.40;;;14.30;99.90;;;;;;5031460;28;20584;-72
2022/10/05 11:19:55;;;;;;;0.40;0.40;;;14.30;99.90;;;;;;5030087;28;20214;-72
2022/10/05 11:22:58;;;;;;;0.50;0.50;;;14.20;99.90;;;;;;5028580;28;20622;-72
2022/10/05 11:26:25;;;;;;;0.40;0.40;;;14.20;99.90;;;;;;5012065;28;20199;-72
2022/10/05 11:29:33;;;;;;;0.40;0.40;;;14.20;99.90;;;;;;4958937;28;20196;-72
2022/10/05 11:32:40;;;;;;;0.40;0.40;;;14.20;99.90;;;;;;4978151;28;20599;-72
2022/10/05 11:35:28;;;;;;;1.08;1.02;;;14.20;99.90;;;;;;4995334;28;20203;-72
2022/10/05 11:39:03;;;;;;;;;;;;;;;;;;;;;
2022/10/05 11:41:59;;;;;;;0.40;0.40;;;14.20;99.90;;;;;;4973183;28;20200;-71
2022/10/05 11:45:20;;;;;;;0.50;0.50;;;14.20;99.90;;;;;;4968098;28;20216;-69
2022/10/05 11:52:01;;;;;;;1.48;0.70;;;14.20;99.90;;;;;;4997985;28;20282;-68
2022/10/05 12:02:37;;;;;;;0.52;0.52;;;14.30;99.90;;;;;;4897830;29;20228;-67
2022/10/05 12:05:47;;;;;;;0.50;0.50;;;14.30;99.90;;;;;;4895753;29;20203;-67
2022/10/05 12:12:10;;;;;;;0.30;0.30;;;14.40;99.90;;;;;;4937269;29;20298;-67
2022/10/05 12:15:23;;;;;;;0.43;0.43;;;14.40;99.90;;;;;;4934965;29;20213;-66
2022/10/05 12:18:38;;;;;;;0.40;0.40;;;14.40;99.90;;;;;;4915149;29;20595;-67
2022/10/05 12:21:34;;;;;;;0.35;0.35;;;14.50;99.90;;;;;;4935576;29;20220;-67
2022/10/05 12:24:35;;;;;;;0.40;0.40;;;14.50;99.90;;;;;;4936320;29;20285;-67
2022/10/05 12:27:47;;;;;;;0.45;0.45;;;14.40;99.90;;;;;;4935183;29;20668;-66
2022/10/05 12:30:59;;;;;;;0.98;0.88;;;14.40;99.90;;;;;;4918717;29;20209;-67
2022/10/05 12:33:45;;;;;;;0.30;0.30;;;14.40;99.90;;;;;;4936568;29;20208;-72
2022/10/05 12:40:41;;;;;;;;;;;;;;;;;;;;;
2022/10/05 12:43:52;;;;;;;0.50;0.50;;;14.50;99.90;;;;;;4886849;29;20656;-73
2022/10/05 12:46:50;;;;;;;0.50;0.50;;;14.40;99.90;;;;;;4918196;29;20276;-67
2022/10/05 12:53:08;;;;;;;0.40;0.40;;;14.30;99.90;;;;;;4992533;23;20268;-82
2022/10/05 12:55:52;;;;;;;0.30;0.30;;;14.30;99.90;;;;;;5025426;23;20695;-66
2022/10/05 12:58:39;;;;;;;0.40;0.40;;;14.40;99.90;;;;;;5023330;28;20226;-66
2022/10/05 13:01:20;;;;;;;0.40;0.40;;;14.40;99.90;;;;;;5030987;28;20193;-66
2022/10/05 13:04:02;;;;;;;0.40;0.40;;;14.40;99.90;;;;;;5022606;28;20649;-65
2022/10/05 13:07:09;;;;;;;0.40;0.40;;;14.50;99.90;;;;;;5014961;28;20657;-67
2022/10/05 13:09:40;;;;;;;0.50;0.50;;;14.50;99.90;;;;;;4992701;28;20206;-66
2022/10/05 13:12:17;;;;;;;0.40;0.40;;;14.50;99.90;;;;;;4993202;28;20298;-68
2022/10/05 13:14:48;;;;;;;0.40;0.40;;;14.40;99.90;;;;;;4992618;28;20198;-66
2022/10/05 13:17:33;;;;;;;0.40;0.40;;;14.40;99.90;;;;;;4994187;28;20581;-67
2022/10/05 13:20:07;;;;;;;0.40;0.40;;;14.40;99.90;;;;;;4992014;28;20257;-66
2022/10/05 13:23:15;;;;;;;0.40;0.40;;;14.40;99.90;;;;;;4977243;28;20279;-68
2022/10/05 13:26:00;;;;;;;0.40;0.40;;;14.40;99.90;;;;;;4991327;28;20237;-69
2022/10/05 13:28:43;;;;;;;0.40;0.40;;;14.30;99.90;;;;;;4976340;28;20667;-66
2022/10/05 13:31:20;;;;;;;0.50;0.50;;;14.30;99.90;;;;;;4994384;28;20206;-66
2022/10/05 13:34:06;;;;;;;0.40;0.40;;;14.30;99.90;;;;;;4993398;28;20207;-66
2022/10/05 13:36:41;;;;;;;0.40;0.40;;;14.30;99.90;;;;;;4993440;28;20211;-66
2022/10/05 13:39:37;;;;;;;0.40;0.40;;;14.30;99.90;;;;;;4993355;28;20211;-66
2022/10/05 13:42:30;;;;;;;0.40;0.40;;;14.30;99.90;;;;;;4993965;28;20199;-67
2022/10/05 13:45:02;;;;;;;0.40;0.40;;;14.30;99.90;;;;;;4995557;28;20230;-67
2022/10/05 13:47:38;;;;;;;0.50;0.50;;;14.30;99.90;;;;;;4995394;28;20207;-66
2022/10/05 13:50:17;;;;;;;0.50;0.50;;;14.20;99.90;;;;;;4995568;28;20207;-67
2022/10/05 13:53:00;;;;;;;0.40;0.40;;;14.20;99.90;;;;;;4995773;28;20324;-66
2022/10/05 13:55:32;;;;;;;0.50;0.50;;;14.30;99.90;;;;;;4989683;28;20232;-67
2022/10/05 13:58:21;;;;;;;0.85;0.70;;;14.30;99.90;;;;;;4975454;28;20271;-67
2022/10/05 14:00:54;;;;;;;0.30;0.30;;;14.20;99.90;;;;;;4975655;28;20203;-67
2022/10/05 14:03:35;;;;;;;0.40;0.40;;;14.20;99.90;;;;;;4975726;28;20263;-68
2022/10/05 14:06:12;;;;;;;0.40;0.40;;;14.30;99.90;;;;;;4975174;28;20542;-66
2022/10/05 14:09:09;;;;;;;0.40;0.40;;;14.20;99.90;;;;;;4975522;28;20673;-66
2022/10/05 14:11:35;;;;;;;0.38;0.38;;;14.20;99.90;;;;;;4961720;28;20321;-66
2022/10/05 14:14:27;;;;;;;0.45;0.45;;;14.20;99.90;;;;;;4995019;28;20798;-67
2022/10/05 14:17:04;;;;;;;0.40;0.40;;;14.30;99.90;;;;;;4995241;28;20640;-68
2022/10/05 14:19:32;;;;;;;0.45;0.45;;;14.30;99.90;;;;;;4995115;28;20195;-66
2022/10/05 14:22:01;;;;;;;0.70;0.70;;;14.40;99.90;;;;;;4994591;28;20199;-67
2022/10/05 14:24:35;;;;;;;0.60;0.60;;;14.40;99.90;;;;;;4961486;28;20192;-67
2022/10/05 14:27:18;;;;;;;0.38;0.38;;;14.40;99.90;;;;;;4974941;28;20195;-66
2022/10/05 14:30:01;;;;;;;0.40;0.40;;;14.40;99.90;;;;;;4957635;28;20594;-69
2022/10/05 14:32:42;;;;;;;0.57;0.57;;;14.40;99.90;;;;;;4957237;28;20184;-67
2022/10/05 14:35:15;;;;;;;4.00;1.25;;;14.40;99.90;;;;;;4987558;28;20733;-67
2022/10/05 14:37:42;;;;;;;0.50;0.50;;;14.40;99.90;;;;;;4993659;28;20226;-67
2022/10/05 14:40:24;;;;;;;0.47;0.47;;;14.50;99.90;;;;;;4992842;28;20204;-67
2022/10/05 14:42:50;;;;;;;0.30;0.30;;;14.40;99.90;;;;;;4993618;28;20197;-67
2022/10/05 14:45:24;;;;;;;0.40;0.40;;;14.40;99.90;;;;;;4973276;28;20342;-68
2022/10/05 14:48:10;;;;;;;1.27;0.45;;;14.40;99.90;;;;;;4974875;28;20661;-67
2022/10/05 14:50:51;;;;;;;0.35;0.35;;;14.40;99.90;;;;;;4974873;28;20188;-66
2022/10/05 14:53:23;;;;;;;0.38;0.38;;;14.40;99.90;;;;;;4999073;28;20277;-67
2022/10/05 14:56:00;;;;;;;0.40;0.40;;;14.40;99.90;;;;;;5012922;28;20230;-67
2022/10/05 14:58:58;;;;;;;12.07;0.80;;;14.30;99.90;;;;;;5013152;28;20281;-66
2022/10/05 15:01:31;;;;;;;0.40;0.40;;;14.40;99.90;;;;;;5012838;28;20186;-67
2022/10/05 15:04:29;;;;;;;0.95;0.90;;;14.40;99.90;;;;;;5013006;28;20225;-67